• Join FlightAware (Why Join?)
  • Login
  • US Flag 
06:25AM EDT


 

Airport Tracker/Info


-or-


 

Live Flight TrackerFlight Track Log ✈ ASQ3811 ✈ 05-Jul-2013 ✈ KORF - KEWR

Flight Track Log - Related Links

Times and Time Zones

All times are in EDT time to prevent confusion due to time zone crossing. See the ASQ3811 flight status page for this flight to view local times or setup timezone preferences in your user account.

Time Position Orientation Groundspeed Altitude Reporting Facility
EDT Latitude Longitude Course Direction KTS MPH feet Rate Location/Type
06:08AM 36.8889 -76.2125 300° West 173 199 500  Level Washington Center
06:09AM 36.8425 -76.2744 227° Southwest 220 253 4,100 2,400 Climbing Washington Center
06:10AM 36.8694 -76.3267 303° West 219 252 5,800 2,040 Climbing Washington Center
06:11AM 37.0276 -76.4718 302° West  Level FlightAware Approximate
06:11AM 36.9147 -76.3997 308° West 238 274 8,000  Level Washington Center
06:12AM 37.0667 -76.5667 302° West  Level FlightAware Approximate
06:12AM 36.9603 -76.4783 306° West 263 303 10,200  Level Washington Center
06:13AM 37.1120 -76.6597 300° West  Level FlightAware Approximate
06:13AM 37.0094 -76.5647 305° West 288 331 11,200  Level Washington Center
06:14AM 37.0672 -76.6617 307° West 325 374 12,200 960 Climbing Washington Center
06:15AM 37.1267 -76.7642 306° West 352 405 13,200 960 Climbing Washington Center
06:16AM 37.1881 -76.8719 306° West 367 422 14,200 1,140 Climbing Washington Center
06:17AM 37.2494 -76.9853 304° West 389 448 15,500 1,200 Climbing Washington Center
06:18AM 37.3175 -77.0672 316° Northwest 384 442 16,600 1,200 Climbing Washington Center
06:19AM 37.4342 -77.0722 358° North 363 418 18,000 1,080 Climbing Washington Center
06:20AM 37.5328 -77.0294 19° North 382 440 18,800 1,080 Climbing Washington Center
06:21AM 37.6375 -76.9792 21° North 394 453 20,100 1,200 Climbing Washington Center
06:22AM 37.7425 -76.9233 23° Northeast 406 467 21,300 1,200 Climbing Washington Center
06:23AM 37.8494 -76.8647 23° Northeast 412 474 22,600 1,140 Climbing Washington Center
06:24AM 37.9586 -76.8058 23° Northeast 412 474 23,700 1,020 Climbing Washington Center
06:25AM 38.0656 -76.7494 23° Northeast 412 474 24,700 600 Climbing Washington Center
06:26AM 38.1786 -76.6881 23° Northeast 417 480 25,000 120 Climbing Washington Center
06:27AM 38.2897 -76.6286 23° Northeast 422 486 25,000  Level Washington Center
06:28AM 38.3986 -76.5719 22° Northeast 422 486 25,000  Level Washington Center
06:29AM 38.5094 -76.5122 23° Northeast 422 486 25,000  Level Washington Center
06:30AM 38.6331 -76.4447 23° Northeast 422 486 25,000  Level Washington Center
06:31AM 38.7419 -76.3847 23° Northeast 422 486 25,000  Level Washington Center
06:32AM 38.8528 -76.3247 23° Northeast 422 486 25,000  Level Washington Center
06:33AM 38.9614 -76.2644 23° Northeast 422 486 25,000  Level Washington Center
06:34AM 39.0703 -76.2039 23° Northeast 422 486 25,000 -420 Level Washington Center
06:35AM 39.1747 -76.1483 22° Northeast 422 486 24,200 -900 Descending Washington Center
06:36AM 39.2814 -76.0769 27° Northeast 422 486 23,200 -1,080 Descending Washington Center
06:37AM 39.3692 -75.9808 40° Northeast 416 479 22,100 -1,080 Descending Washington Center
06:38AM 39.4464 -75.8872 43° Northeast 402 463 21,100 -900 Descending Washington Center
06:39AM 39.5050 -75.8147 44° Northeast 381 438 20,300 -600 Descending Washington Center
06:40AM 39.5947 -75.7100 42° Northeast 368 423 20,000 -180 Descending Washington Center
06:41AM 39.6697 -75.6239 41° Northeast 363 418 20,000 -540 Level Washington Center
06:42AM 39.7447 -75.5322 43° Northeast 363 418 19,000 -1,260 Descending Washington Center
06:43AM 39.8239 -75.4375 43° Northeast 375 432 17,600 -1,560 Descending Washington Center
06:44AM 39.9050 -75.3400 43° Northeast 381 438 15,900 -1,620 Descending Washington Center
06:45AM 39.9817 -75.2422 44° Northeast 386 444 14,400 -1,560 Descending Washington Center
06:46AM 40.0606 -75.1497 42° Northeast 386 444 12,800 -1,680 Descending Washington Center
06:48AM 40.1667 -75.0167 44° Northeast 338 389 10,500 -1,740 Descending New York TRACON
06:49AM 40.2333 -74.9333 44° Northeast 309 356 8,600 -1,260 Descending New York TRACON
06:50AM 40.2833 -74.8500 52° Northeast 302 348 8,000 -540 Descending New York TRACON
06:51AM 40.3500 -74.7833 37° Northeast 294 338 7,700 -720 Descending New York TRACON
06:52AM 40.4000 -74.7000 52° Northeast 285 328 6,700 -900 Descending New York TRACON
06:52AM 40.4667 -74.6667 21° North 287 330 6,000 -420 Descending New York TRACON
06:53AM 40.5333 -74.6500 11° North 287 330 6,000  Level New York TRACON
06:54AM 40.6000 -74.6333 11° North 280 322 6,000  Level New York TRACON
06:55AM 40.6833 -74.6167 North 286 329 6,000 -60 Level New York TRACON
06:56AM 40.7500 -74.5833 21° North 286 329 5,900 -480 Descending New York TRACON
06:57AM 40.8167 -74.5167 37° Northeast 282 325 5,100 -480 Descending New York TRACON
06:58AM 40.8667 -74.4500 45° Northeast 286 329 5,000  Descending New York TRACON
06:59AM 40.9333 -74.3833 37° Northeast 286 329 5,100 -180 Climbing New York TRACON
07:00AM 40.9500 -74.2833 78° East 285 328 4,700 -660 Descending New York TRACON
07:01AM 40.9667 -74.2000 75° East 287 330 4,000 -420 Descending New York TRACON
07:02AM 40.9333 -74.1333 123° Southeast 247 284 4,000 -240 Level New York TRACON
07:03AM 40.8667 -74.0833 150° Southeast 234 269 3,600 -660 Descending New York TRACON
07:04AM 40.8167 -74.0833 180° South 200 230 2,700 -900 Descending New York TRACON